sensor_id;sensor_type;location;lat;lon;timestamp;temperature;humidity
61207;DHT22;47070;49.212;8.084;2022-09-12T00:01:30;15.00;99.90
61207;DHT22;47070;49.212;8.084;2022-09-12T00:05:30;14.90;99.90
61207;DHT22;47070;49.212;8.084;2022-09-12T00:09:32;15.00;99.90
61207;DHT22;47070;49.212;8.084;2022-09-12T00:13:33;15.00;99.90
61207;DHT22;47070;49.212;8.084;2022-09-12T00:17:34;15.00;99.90
61207;DHT22;47070;49.212;8.084;2022-09-12T00:21:37;14.90;99.90
61207;DHT22;47070;49.212;8.084;2022-09-12T00:25:41;14.90;99.90
61207;DHT22;47070;49.212;8.084;2022-09-12T00:29:41;14.80;99.90
61207;DHT22;47070;49.212;8.084;2022-09-12T00:33:42;14.80;99.90
61207;DHT22;47070;49.212;8.084;2022-09-12T00:37:43;14.70;99.90
61207;DHT22;47070;49.212;8.084;2022-09-12T00:41:44;14.70;99.90
61207;DHT22;47070;49.212;8.084;2022-09-12T00:45:44;14.80;99.90
61207;DHT22;47070;49.212;8.084;2022-09-12T00:49:49;14.70;99.90
61207;DHT22;47070;49.212;8.084;2022-09-12T00:53:52;14.70;99.90
61207;DHT22;47070;49.212;8.084;2022-09-12T00:58:01;14.60;99.90
61207;DHT22;47070;49.212;8.084;2022-09-12T01:02:03;14.70;99.90
61207;DHT22;47070;49.212;8.084;2022-09-12T01:06:11;14.50;99.90
61207;DHT22;47070;49.212;8.084;2022-09-12T01:10:13;14.50;99.90
61207;DHT22;47070;49.212;8.084;2022-09-12T01:14:15;14.60;99.90
61207;DHT22;47070;49.212;8.084;2022-09-12T01:18:27;14.50;99.90
61207;DHT22;47070;49.212;8.084;2022-09-12T01:31:03;14.70;99.90
61207;DHT22;47070;49.212;8.084;2022-09-12T01:35:23;14.50;99.90
61207;DHT22;47070;49.212;8.084;2022-09-12T01:43:51;14.40;99.90
61207;DHT22;47070;49.212;8.084;2022-09-12T01:48:19;14.60;99.90
61207;DHT22;47070;49.212;8.084;2022-09-12T01:56:25;14.60;99.90
61207;DHT22;47070;49.212;8.084;2022-09-12T02:00:25;14.40;99.90
61207;DHT22;47070;49.212;8.084;2022-09-12T02:04:27;14.50;99.90
61207;DHT22;47070;49.212;8.084;2022-09-12T02:08:32;14.60;99.90
61207;DHT22;47070;49.212;8.084;2022-09-12T02:12:49;14.50;99.90
61207;DHT22;47070;49.212;8.084;2022-09-12T02:16:53;14.50;99.90
61207;DHT22;47070;49.212;8.084;2022-09-12T02:20:54;14.40;99.90
61207;DHT22;47070;49.212;8.084;2022-09-12T02:24:58;14.40;99.90
61207;DHT22;47070;49.212;8.084;2022-09-12T02:29:00;14.40;99.90
61207;DHT22;47070;49.212;8.084;2022-09-12T02:33:02;14.30;99.90
61207;DHT22;47070;49.212;8.084;2022-09-12T02:37:16;14.40;99.90
61207;DHT22;47070;49.212;8.084;2022-09-12T02:41:18;14.40;99.90
61207;DHT22;47070;49.212;8.084;2022-09-12T02:45:19;14.30;99.90
61207;DHT22;47070;49.212;8.084;2022-09-12T02:49:22;14.40;99.90
61207;DHT22;47070;49.212;8.084;2022-09-12T02:53:24;14.30;99.90
61207;DHT22;47070;49.212;8.084;2022-09-12T02:57:24;14.20;99.90
61207;DHT22;47070;49.212;8.084;2022-09-12T03:14:20;14.30;99.90
61207;DHT22;47070;49.212;8.084;2022-09-12T03:22:24;14.10;99.90
61207;DHT22;47070;49.212;8.084;2022-09-12T03:26:30;14.00;99.90
61207;DHT22;47070;49.212;8.084;2022-09-12T03:30:38;14.00;99.90
61207;DHT22;47070;49.212;8.084;2022-09-12T03:34:39;14.00;99.90
61207;DHT22;47070;49.212;8.084;2022-09-12T03:38:40;14.00;99.90
61207;DHT22;47070;49.212;8.084;2022-09-12T03:42:40;14.00;99.90
61207;DHT22;47070;49.212;8.084;2022-09-12T03:46:41;14.00;99.90
61207;DHT22;47070;49.212;8.084;2022-09-12T03:50:41;13.90;99.90
61207;DHT22;47070;49.212;8.084;2022-09-12T03:54:42;13.70;99.90
61207;DHT22;47070;49.212;8.084;2022-09-12T03:58:42;13.70;99.90
61207;DHT22;47070;49.212;8.084;2022-09-12T04:02:43;13.80;99.90
61207;DHT22;47070;49.212;8.084;2022-09-12T04:06:43;13.90;99.90
61207;DHT22;47070;49.212;8.084;2022-09-12T04:10:44;13.70;99.90
61207;DHT22;47070;49.212;8.084;2022-09-12T04:14:44;13.70;99.90
61207;DHT22;47070;49.212;8.084;2022-09-12T04:18:45;13.70;99.90
61207;DHT22;47070;49.212;8.084;2022-09-12T04:22:45;13.80;99.90
61207;DHT22;47070;49.212;8.084;2022-09-12T04:26:46;13.60;99.90
61207;DHT22;47070;49.212;8.084;2022-09-12T04:30:46;13.30;99.90
61207;DHT22;47070;49.212;8.084;2022-09-12T04:34:47;13.50;99.90
61207;DHT22;47070;49.212;8.084;2022-09-12T04:38:47;13.60;99.90
61207;DHT22;47070;49.212;8.084;2022-09-12T04:42:49;13.70;99.90
61207;DHT22;47070;49.212;8.084;2022-09-12T04:46:50;13.70;99.90
61207;DHT22;47070;49.212;8.084;2022-09-12T04:50:51;13.70;99.90
61207;DHT22;47070;49.212;8.084;2022-09-12T04:54:52;13.60;99.90
61207;DHT22;47070;49.212;8.084;2022-09-12T04:58:52;13.70;99.90
61207;DHT22;47070;49.212;8.084;2022-09-12T05:02:53;13.70;99.90
61207;DHT22;47070;49.212;8.084;2022-09-12T05:06:53;13.60;99.90
61207;DHT22;47070;49.212;8.084;2022-09-12T05:10:54;13.50;99.90
61207;DHT22;47070;49.212;8.084;2022-09-12T05:14:54;13.40;99.90
61207;DHT22;47070;49.212;8.084;2022-09-12T05:18:55;13.30;99.90
61207;DHT22;47070;49.212;8.084;2022-09-12T05:22:56;13.30;99.90
61207;DHT22;47070;49.212;8.084;2022-09-12T05:26:58;13.40;99.90
61207;DHT22;47070;49.212;8.084;2022-09-12T05:31:04;13.50;99.90
61207;DHT22;47070;49.212;8.084;2022-09-12T05:35:05;13.60;99.90
61207;DHT22;47070;49.212;8.084;2022-09-12T05:39:06;13.60;99.90
61207;DHT22;47070;49.212;8.084;2022-09-12T05:43:06;13.80;99.90
61207;DHT22;47070;49.212;8.084;2022-09-12T05:47:06;13.90;99.90
61207;DHT22;47070;49.212;8.084;2022-09-12T05:51:13;14.10;99.90
61207;DHT22;47070;49.212;8.084;2022-09-12T05:55:14;14.30;99.90
61207;DHT22;47070;49.212;8.084;2022-09-12T05:59:20;14.40;99.90
61207;DHT22;47070;49.212;8.084;2022-09-12T06:03:21;14.60;99.90
61207;DHT22;47070;49.212;8.084;2022-09-12T06:07:21;14.70;99.90
61207;DHT22;47070;49.212;8.084;2022-09-12T06:11:23;14.80;99.90
61207;DHT22;47070;49.212;8.084;2022-09-12T06:15:25;15.00;99.90
61207;DHT22;47070;49.212;8.084;2022-09-12T06:19:25;15.20;99.90
61207;DHT22;47070;49.212;8.084;2022-09-12T06:23:27;15.40;99.90
61207;DHT22;47070;49.212;8.084;2022-09-12T06:27:27;15.40;99.90
61207;DHT22;47070;49.212;8.084;2022-09-12T06:31:29;15.50;99.90
61207;DHT22;47070;49.212;8.084;2022-09-12T06:35:29;15.60;99.90
61207;DHT22;47070;49.212;8.084;2022-09-12T06:39:30;15.90;99.90
61207;DHT22;47070;49.212;8.084;2022-09-12T06:43:32;16.00;99.90
61207;DHT22;47070;49.212;8.084;2022-09-12T06:47:32;16.20;99.90
61207;DHT22;47070;49.212;8.084;2022-09-12T06:51:33;16.30;99.90
61207;DHT22;47070;49.212;8.084;2022-09-12T06:55:37;16.40;99.90
61207;DHT22;47070;49.212;8.084;2022-09-12T06:59:37;16.40;99.90
61207;DHT22;47070;49.212;8.084;2022-09-12T07:03:39;16.70;99.90
61207;DHT22;47070;49.212;8.084;2022-09-12T07:07:39;16.80;99.90
61207;DHT22;47070;49.212;8.084;2022-09-12T07:11:41;16.80;99.90
61207;DHT22;47070;49.212;8.084;2022-09-12T07:15:42;16.90;99.90
61207;DHT22;47070;49.212;8.084;2022-09-12T07:19:42;17.20;99.90
61207;DHT22;47070;49.212;8.084;2022-09-12T07:23:43;17.10;99.90
61207;DHT22;47070;49.212;8.084;2022-09-12T07:27:44;17.20;99.90
61207;DHT22;47070;49.212;8.084;2022-09-12T07:31:45;17.50;99.90
61207;DHT22;47070;49.212;8.084;2022-09-12T07:35:46;17.70;99.90
61207;DHT22;47070;49.212;8.084;2022-09-12T07:39:46;17.80;99.90
61207;DHT22;47070;49.212;8.084;2022-09-12T07:43:47;17.60;99.90
61207;DHT22;47070;49.212;8.084;2022-09-12T07:47:52;17.60;99.90
61207;DHT22;47070;49.212;8.084;2022-09-12T07:51:53;17.80;99.90
61207;DHT22;47070;49.212;8.084;2022-09-12T07:55:54;17.60;99.90
61207;DHT22;47070;49.212;8.084;2022-09-12T07:59:55;17.80;99.90
61207;DHT22;47070;49.212;8.084;2022-09-12T08:03:57;17.70;99.90
61207;DHT22;47070;49.212;8.084;2022-09-12T08:07:58;17.50;99.90
61207;DHT22;47070;49.212;8.084;2022-09-12T08:11:58;17.60;99.90
61207;DHT22;47070;49.212;8.084;2022-09-12T08:16:01;17.80;99.90
61207;DHT22;47070;49.212;8.084;2022-09-12T08:20:03;18.00;99.90
61207;DHT22;47070;49.212;8.084;2022-09-12T08:24:05;18.10;99.90
61207;DHT22;47070;49.212;8.084;2022-09-12T08:28:06;18.30;99.90
61207;DHT22;47070;49.212;8.084;2022-09-12T08:32:06;18.30;99.90
61207;DHT22;47070;49.212;8.084;2022-09-12T08:36:16;18.30;99.90
61207;DHT22;47070;49.212;8.084;2022-09-12T08:40:17;18.50;99.90
61207;DHT22;47070;49.212;8.084;2022-09-12T08:44:27;18.40;99.90
61207;DHT22;47070;49.212;8.084;2022-09-12T08:48:29;18.70;99.90
61207;DHT22;47070;49.212;8.084;2022-09-12T08:56:44;18.80;99.90
61207;DHT22;47070;49.212;8.084;2022-09-12T09:00:59;19.00;99.90
61207;DHT22;47070;49.212;8.084;2022-09-12T09:05:25;19.10;99.90
61207;DHT22;47070;49.212;8.084;2022-09-12T09:13:52;19.10;99.90
61207;DHT22;47070;49.212;8.084;2022-09-12T09:18:21;19.40;99.90
61207;DHT22;47070;49.212;8.084;2022-09-12T09:22:31;19.30;99.90
61207;DHT22;47070;49.212;8.084;2022-09-12T09:26:52;19.40;99.90
61207;DHT22;47070;49.212;8.084;2022-09-12T09:30:54;19.40;99.90
61207;DHT22;47070;49.212;8.084;2022-09-12T09:34:54;19.50;99.90
61207;DHT22;47070;49.212;8.084;2022-09-12T09:43:20;19.80;99.90
61207;DHT22;47070;49.212;8.084;2022-09-12T09:47:26;19.80;99.90
61207;DHT22;47070;49.212;8.084;2022-09-12T09:51:33;19.90;99.90
61207;DHT22;47070;49.212;8.084;2022-09-12T09:55:40;20.40;99.90
61207;DHT22;47070;49.212;8.084;2022-09-12T09:59:41;20.30;99.90
61207;DHT22;47070;49.212;8.084;2022-09-12T10:03:50;20.60;99.90
61207;DHT22;47070;49.212;8.084;2022-09-12T10:07:51;20.40;99.90
61207;DHT22;47070;49.212;8.084;2022-09-12T10:11:53;20.40;99.90
61207;DHT22;47070;49.212;8.084;2022-09-12T10:15:59;20.60;99.90
61207;DHT22;47070;49.212;8.084;2022-09-12T10:20:01;20.80;99.90
61207;DHT22;47070;49.212;8.084;2022-09-12T10:28:31;21.20;99.90
61207;DHT22;47070;49.212;8.084;2022-09-12T10:32:41;21.30;99.90
61207;DHT22;47070;49.212;8.084;2022-09-12T10:36:42;21.40;99.90
61207;DHT22;47070;49.212;8.084;2022-09-12T10:40:43;21.10;99.90
61207;DHT22;47070;49.212;8.084;2022-09-12T10:44:52;21.30;99.90
61207;DHT22;47070;49.212;8.084;2022-09-12T10:53:27;21.60;99.90
61207;DHT22;47070;49.212;8.084;2022-09-12T10:57:53;21.40;99.90
61207;DHT22;47070;49.212;8.084;2022-09-12T11:06:15;21.80;99.90
61207;DHT22;47070;49.212;8.084;2022-09-12T11:23:46;22.30;99.90
61207;DHT22;47070;49.212;8.084;2022-09-12T11:28:29;21.80;99.90
61207;DHT22;47070;49.212;8.084;2022-09-12T11:37:06;21.80;99.90
61207;DHT22;47070;49.212;8.084;2022-09-12T11:41:18;21.90;99.90
61207;DHT22;47070;49.212;8.084;2022-09-12T11:45:27;22.40;99.90
61207;DHT22;47070;49.212;8.084;2022-09-12T11:49:35;22.60;99.90
61207;DHT22;47070;49.212;8.084;2022-09-12T11:53:39;22.90;99.90
61207;DHT22;47070;49.212;8.084;2022-09-12T11:57:56;23.70;99.90
61207;DHT22;47070;49.212;8.084;2022-09-12T12:02:02;24.40;99.90
61207;DHT22;47070;49.212;8.084;2022-09-12T12:06:09;25.00;99.90
61207;DHT22;47070;49.212;8.084;2022-09-12T12:10:28;25.10;99.90
61207;DHT22;47070;49.212;8.084;2022-09-12T12:14:39;25.60;99.90
61207;DHT22;47070;49.212;8.084;2022-09-12T12:18:42;26.10;99.90
61207;DHT22;47070;49.212;8.084;2022-09-12T12:22:53;26.50;99.90
61207;DHT22;47070;49.212;8.084;2022-09-12T12:27:21;26.40;99.90
61207;DHT22;47070;49.212;8.084;2022-09-12T12:31:22;26.20;99.90
61207;DHT22;47070;49.212;8.084;2022-09-12T12:43:36;27.60;99.90
61207;DHT22;47070;49.212;8.084;2022-09-12T12:55:54;28.70;99.00
61207;DHT22;47070;49.212;8.084;2022-09-12T13:00:21;28.60;96.90
61207;DHT22;47070;49.212;8.084;2022-09-12T13:04:29;29.20;97.50
61207;DHT22;47070;49.212;8.084;2022-09-12T13:08:33;29.80;95.30
61207;DHT22;47070;49.212;8.084;2022-09-12T13:12:42;29.80;94.00
61207;DHT22;47070;49.212;8.084;2022-09-12T13:16:55;30.50;91.50
61207;DHT22;47070;49.212;8.084;2022-09-12T13:21:08;30.70;90.30
61207;DHT22;47070;49.212;8.084;2022-09-12T13:25:26;31.10;85.10
61207;DHT22;47070;49.212;8.084;2022-09-12T13:29:27;31.40;88.50
61207;DHT22;47070;49.212;8.084;2022-09-12T13:33:46;32.10;87.70
61207;DHT22;47070;49.212;8.084;2022-09-12T13:38:17;32.40;79.40
61207;DHT22;47070;49.212;8.084;2022-09-12T13:42:33;33.10;74.60
61207;DHT22;47070;49.212;8.084;2022-09-12T13:46:36;33.00;73.90
61207;DHT22;47070;49.212;8.084;2022-09-12T13:50:44;33.40;75.00
61207;DHT22;47070;49.212;8.084;2022-09-12T13:54:49;33.30;79.20
61207;DHT22;47070;49.212;8.084;2022-09-12T13:58:53;33.00;80.30
61207;DHT22;47070;49.212;8.084;2022-09-12T14:02:55;32.60;77.00
61207;DHT22;47070;49.212;8.084;2022-09-12T14:07:20;31.20;76.70
61207;DHT22;47070;49.212;8.084;2022-09-12T14:11:25;30.00;79.90
61207;DHT22;47070;49.212;8.084;2022-09-12T14:15:29;28.80;84.70
61207;DHT22;47070;49.212;8.084;2022-09-12T14:19:29;28.00;84.00
61207;DHT22;47070;49.212;8.084;2022-09-12T14:23:32;27.50;83.40
61207;DHT22;47070;49.212;8.084;2022-09-12T14:27:42;27.10;90.10
61207;DHT22;47070;49.212;8.084;2022-09-12T14:31:45;26.70;88.70
61207;DHT22;47070;49.212;8.084;2022-09-12T14:36:07;26.40;91.30
61207;DHT22;47070;49.212;8.084;2022-09-12T14:40:16;26.10;91.50
61207;DHT22;47070;49.212;8.084;2022-09-12T14:44:21;25.90;90.30
61207;DHT22;47070;49.212;8.084;2022-09-12T14:48:23;25.90;93.40
61207;DHT22;47070;49.212;8.084;2022-09-12T14:52:28;25.70;91.50
61207;DHT22;47070;49.212;8.084;2022-09-12T14:56:43;25.60;93.90
61207;DHT22;47070;49.212;8.084;2022-09-12T15:00:56;25.30;90.20
61207;DHT22;47070;49.212;8.084;2022-09-12T15:09:12;25.20;93.90
61207;DHT22;47070;49.212;8.084;2022-09-12T15:13:15;25.20;90.90
61207;DHT22;47070;49.212;8.084;2022-09-12T15:17:16;25.20;94.20
61207;DHT22;47070;49.212;8.084;2022-09-12T15:21:19;25.10;93.60
61207;DHT22;47070;49.212;8.084;2022-09-12T15:25:20;25.00;95.80
61207;DHT22;47070;49.212;8.084;2022-09-12T15:29:20;25.00;93.40
61207;DHT22;47070;49.212;8.084;2022-09-12T15:33:23;25.00;92.60
61207;DHT22;47070;49.212;8.084;2022-09-12T15:37:24;24.80;95.00
61207;DHT22;47070;49.212;8.084;2022-09-12T15:41:31;24.90;94.30
61207;DHT22;47070;49.212;8.084;2022-09-12T15:45:33;24.70;94.80
61207;DHT22;47070;49.212;8.084;2022-09-12T15:49:34;24.60;97.40
61207;DHT22;47070;49.212;8.084;2022-09-12T15:53:34;24.50;94.80
61207;DHT22;47070;49.212;8.084;2022-09-12T15:57:35;24.40;97.60
61207;DHT22;47070;49.212;8.084;2022-09-12T16:01:35;24.20;95.10
61207;DHT22;47070;49.212;8.084;2022-09-12T16:05:36;24.10;94.00
61207;DHT22;47070;49.212;8.084;2022-09-12T16:09:38;24.20;96.10
61207;DHT22;47070;49.212;8.084;2022-09-12T16:13:38;24.30;96.20
61207;DHT22;47070;49.212;8.084;2022-09-12T16:17:39;24.10;97.90
61207;DHT22;47070;49.212;8.084;2022-09-12T16:21:39;23.90;96.70
61207;DHT22;47070;49.212;8.084;2022-09-12T16:25:40;24.10;95.10
61207;DHT22;47070;49.212;8.084;2022-09-12T16:29:40;23.90;96.10
61207;DHT22;47070;49.212;8.084;2022-09-12T16:33:41;24.10;98.50
61207;DHT22;47070;49.212;8.084;2022-09-12T16:37:42;23.90;97.30
61207;DHT22;47070;49.212;8.084;2022-09-12T16:41:42;23.80;98.60
61207;DHT22;47070;49.212;8.084;2022-09-12T16:45:43;23.40;99.90
61207;DHT22;47070;49.212;8.084;2022-09-12T16:49:44;23.00;99.90
61207;DHT22;47070;49.212;8.084;2022-09-12T16:53:45;22.90;99.90
61207;DHT22;47070;49.212;8.084;2022-09-12T16:57:45;22.80;99.90
61207;DHT22;47070;49.212;8.084;2022-09-12T17:01:48;22.70;99.90
61207;DHT22;47070;49.212;8.084;2022-09-12T17:06:00;22.60;99.90
61207;DHT22;47070;49.212;8.084;2022-09-12T17:10:00;22.30;99.90
61207;DHT22;47070;49.212;8.084;2022-09-12T17:14:03;22.30;99.90
61207;DHT22;47070;49.212;8.084;2022-09-12T17:18:05;21.90;99.90
61207;DHT22;47070;49.212;8.084;2022-09-12T17:22:05;21.40;99.90
61207;DHT22;47070;49.212;8.084;2022-09-12T17:26:07;21.30;99.90
61207;DHT22;47070;49.212;8.084;2022-09-12T17:30:09;20.70;99.90
61207;DHT22;47070;49.212;8.084;2022-09-12T17:34:10;20.50;99.90
61207;DHT22;47070;49.212;8.084;2022-09-12T17:38:13;20.10;99.90
61207;DHT22;47070;49.212;8.084;2022-09-12T17:42:14;20.30;99.90
61207;DHT22;47070;49.212;8.084;2022-09-12T17:46:15;20.50;99.90
61207;DHT22;47070;49.212;8.084;2022-09-12T17:50:16;20.50;99.90
61207;DHT22;47070;49.212;8.084;2022-09-12T17:54:19;20.30;99.90
61207;DHT22;47070;49.212;8.084;2022-09-12T17:58:20;20.20;99.90
61207;DHT22;47070;49.212;8.084;2022-09-12T18:02:21;20.20;99.90
61207;DHT22;47070;49.212;8.084;2022-09-12T18:06:22;19.90;99.90
61207;DHT22;47070;49.212;8.084;2022-09-12T18:10:24;19.90;99.90
61207;DHT22;47070;49.212;8.084;2022-09-12T18:14:26;19.70;99.90
61207;DHT22;47070;49.212;8.084;2022-09-12T18:18:27;19.60;99.90
61207;DHT22;47070;49.212;8.084;2022-09-12T18:22:27;19.60;99.90
61207;DHT22;47070;49.212;8.084;2022-09-12T18:26:29;19.50;99.90
61207;DHT22;47070;49.212;8.084;2022-09-12T18:30:30;19.30;99.90
61207;DHT22;47070;49.212;8.084;2022-09-12T18:34:30;19.30;99.90
61207;DHT22;47070;49.212;8.084;2022-09-12T18:38:31;19.10;99.90
61207;DHT22;47070;49.212;8.084;2022-09-12T18:42:31;19.10;99.90
61207;DHT22;47070;49.212;8.084;2022-09-12T18:46:33;19.00;99.90
61207;DHT22;47070;49.212;8.084;2022-09-12T18:50:34;18.90;99.90
61207;DHT22;47070;49.212;8.084;2022-09-12T18:54:34;18.80;99.90
61207;DHT22;47070;49.212;8.084;2022-09-12T18:58:38;18.70;99.90
61207;DHT22;47070;49.212;8.084;2022-09-12T19:02:39;18.60;99.90
61207;DHT22;47070;49.212;8.084;2022-09-12T19:06:43;18.50;99.90
61207;DHT22;47070;49.212;8.084;2022-09-12T19:10:44;18.50;99.90
61207;DHT22;47070;49.212;8.084;2022-09-12T19:14:44;18.10;99.90
61207;DHT22;47070;49.212;8.084;2022-09-12T19:18:45;18.30;99.90
61207;DHT22;47070;49.212;8.084;2022-09-12T19:22:48;18.30;99.90
61207;DHT22;47070;49.212;8.084;2022-09-12T19:26:49;18.30;99.90
61207;DHT22;47070;49.212;8.084;2022-09-12T19:30:51;18.30;99.90
61207;DHT22;47070;49.212;8.084;2022-09-12T19:34:52;18.20;99.90
61207;DHT22;47070;49.212;8.084;2022-09-12T19:38:52;17.90;99.90
61207;DHT22;47070;49.212;8.084;2022-09-12T19:42:53;17.90;99.90
61207;DHT22;47070;49.212;8.084;2022-09-12T19:46:53;17.90;99.90
61207;DHT22;47070;49.212;8.084;2022-09-12T19:51:01;17.80;99.90
61207;DHT22;47070;49.212;8.084;2022-09-12T19:55:02;17.80;99.90
61207;DHT22;47070;49.212;8.084;2022-09-12T19:59:03;17.60;99.90
61207;DHT22;47070;49.212;8.084;2022-09-12T20:03:04;17.70;99.90
61207;DHT22;47070;49.212;8.084;2022-09-12T20:07:05;17.60;99.90
61207;DHT22;47070;49.212;8.084;2022-09-12T20:11:06;17.50;99.90
61207;DHT22;47070;49.212;8.084;2022-09-12T20:15:08;17.30;99.90
61207;DHT22;47070;49.212;8.084;2022-09-12T20:19:08;17.50;99.90
61207;DHT22;47070;49.212;8.084;2022-09-12T20:23:09;17.40;99.90
61207;DHT22;47070;49.212;8.084;2022-09-12T20:27:09;17.40;99.90
61207;DHT22;47070;49.212;8.084;2022-09-12T20:31:12;17.10;99.90
61207;DHT22;47070;49.212;8.084;2022-09-12T20:35:13;17.10;99.90
61207;DHT22;47070;49.212;8.084;2022-09-12T20:39:16;17.10;99.90
61207;DHT22;47070;49.212;8.084;2022-09-12T20:43:17;17.00;99.90
61207;DHT22;47070;49.212;8.084;2022-09-12T20:47:18;17.10;99.90
61207;DHT22;47070;49.212;8.084;2022-09-12T20:51:19;17.00;99.90
61207;DHT22;47070;49.212;8.084;2022-09-12T20:55:20;17.10;99.90
61207;DHT22;47070;49.212;8.084;2022-09-12T20:59:21;17.10;99.90
61207;DHT22;47070;49.212;8.084;2022-09-12T21:03:21;17.00;99.90
61207;DHT22;47070;49.212;8.084;2022-09-12T21:07:22;17.00;99.90
61207;DHT22;47070;49.212;8.084;2022-09-12T21:11:22;17.00;99.90
61207;DHT22;47070;49.212;8.084;2022-09-12T21:15:23;16.90;99.90
61207;DHT22;47070;49.212;8.084;2022-09-12T21:19:23;16.80;99.90
61207;DHT22;47070;49.212;8.084;2022-09-12T21:23:25;16.70;99.90
61207;DHT22;47070;49.212;8.084;2022-09-12T21:27:26;16.40;99.90
61207;DHT22;47070;49.212;8.084;2022-09-12T21:31:27;16.60;99.90
61207;DHT22;47070;49.212;8.084;2022-09-12T21:35:27;16.60;99.90
61207;DHT22;47070;49.212;8.084;2022-09-12T21:39:28;16.50;99.90
61207;DHT22;47070;49.212;8.084;2022-09-12T21:43:29;16.40;99.90
61207;DHT22;47070;49.212;8.084;2022-09-12T21:47:30;16.50;99.90
61207;DHT22;47070;49.212;8.084;2022-09-12T21:51:30;16.60;99.90
61207;DHT22;47070;49.212;8.084;2022-09-12T21:55:31;16.50;99.90
61207;DHT22;47070;49.212;8.084;2022-09-12T21:59:31;16.50;99.90
61207;DHT22;47070;49.212;8.084;2022-09-12T22:03:32;16.50;99.90
61207;DHT22;47070;49.212;8.084;2022-09-12T22:07:32;16.50;99.90
61207;DHT22;47070;49.212;8.084;2022-09-12T22:11:33;16.50;99.90
61207;DHT22;47070;49.212;8.084;2022-09-12T22:15:34;16.40;99.90
61207;DHT22;47070;49.212;8.084;2022-09-12T22:19:35;16.50;99.90
61207;DHT22;47070;49.212;8.084;2022-09-12T22:23:36;16.50;99.90
61207;DHT22;47070;49.212;8.084;2022-09-12T22:27:55;16.60;99.90
61207;DHT22;47070;49.212;8.084;2022-09-12T22:31:57;16.60;99.90
61207;DHT22;47070;49.212;8.084;2022-09-12T22:35:58;16.40;99.90
61207;DHT22;47070;49.212;8.084;2022-09-12T22:39:58;16.50;99.90
61207;DHT22;47070;49.212;8.084;2022-09-12T22:43:59;16.30;99.90
61207;DHT22;47070;49.212;8.084;2022-09-12T22:48:00;16.30;99.90
61207;DHT22;47070;49.212;8.084;2022-09-12T22:52:01;16.20;99.90
61207;DHT22;47070;49.212;8.084;2022-09-12T22:56:03;16.30;99.90
61207;DHT22;47070;49.212;8.084;2022-09-12T23:00:04;16.30;99.90
61207;DHT22;47070;49.212;8.084;2022-09-12T23:04:09;16.30;99.90
61207;DHT22;47070;49.212;8.084;2022-09-12T23:08:10;16.30;99.90
61207;DHT22;47070;49.212;8.084;2022-09-12T23:12:11;16.30;99.90
61207;DHT22;47070;49.212;8.084;2022-09-12T23:20:16;16.20;99.90
61207;DHT22;47070;49.212;8.084;2022-09-12T23:24:17;15.90;99.90
61207;DHT22;47070;49.212;8.084;2022-09-12T23:28:18;15.90;99.90
61207;DHT22;47070;49.212;8.084;2022-09-12T23:32:18;15.90;99.90
61207;DHT22;47070;49.212;8.084;2022-09-12T23:36:20;16.00;99.90
61207;DHT22;47070;49.212;8.084;2022-09-12T23:40:21;15.90;99.90
61207;DHT22;47070;49.212;8.084;2022-09-12T23:44:22;16.00;99.90
61207;DHT22;47070;49.212;8.084;2022-09-12T23:48:22;15.90;99.90
61207;DHT22;47070;49.212;8.084;2022-09-12T23:52:23;15.90;99.90
61207;DHT22;47070;49.212;8.084;2022-09-12T23:56:23;15.90;99.90
